sensor_id;sensor_type;location;lat;lon;timestamp;temperature;humidity
37276;DHT22;23166;51.150;21.620;2022-12-18T00:03:53;-5.70;99.90
37276;DHT22;23166;51.150;21.620;2022-12-18T00:06:20;-5.70;99.90
37276;DHT22;23166;51.150;21.620;2022-12-18T00:08:47;-5.60;99.90
37276;DHT22;23166;51.150;21.620;2022-12-18T00:11:14;-5.60;99.90
37276;DHT22;23166;51.150;21.620;2022-12-18T00:13:41;-5.60;99.90
37276;DHT22;23166;51.150;21.620;2022-12-18T00:16:11;-5.60;99.90
37276;DHT22;23166;51.150;21.620;2022-12-18T00:18:38;-5.50;99.90
37276;DHT22;23166;51.150;21.620;2022-12-18T00:21:06;-5.50;99.90
37276;DHT22;23166;51.150;21.620;2022-12-18T00:23:34;-5.50;99.90
37276;DHT22;23166;51.150;21.620;2022-12-18T00:26:07;-5.50;99.90
37276;DHT22;23166;51.150;21.620;2022-12-18T00:28:33;-5.40;99.90
37276;DHT22;23166;51.150;21.620;2022-12-18T00:31:02;-5.40;99.90
37276;DHT22;23166;51.150;21.620;2022-12-18T00:33:29;-5.40;99.90
37276;DHT22;23166;51.150;21.620;2022-12-18T00:36:04;-5.30;99.90
37276;DHT22;23166;51.150;21.620;2022-12-18T00:38:31;-5.30;99.90
37276;DHT22;23166;51.150;21.620;2022-12-18T00:40:57;-5.30;99.90
37276;DHT22;23166;51.150;21.620;2022-12-18T00:43:24;-5.30;99.90
37276;DHT22;23166;51.150;21.620;2022-12-18T00:45:50;-5.20;99.90
37276;DHT22;23166;51.150;21.620;2022-12-18T00:48:17;-5.20;99.90
37276;DHT22;23166;51.150;21.620;2022-12-18T00:50:43;-5.20;99.90
37276;DHT22;23166;51.150;21.620;2022-12-18T00:53:10;-5.20;99.90
37276;DHT22;23166;51.150;21.620;2022-12-18T00:55:40;-5.10;99.90
37276;DHT22;23166;51.150;21.620;2022-12-18T00:58:07;-5.10;99.90
37276;DHT22;23166;51.150;21.620;2022-12-18T01:00:34;-5.10;99.90
37276;DHT22;23166;51.150;21.620;2022-12-18T01:03:01;-5.10;99.90
37276;DHT22;23166;51.150;21.620;2022-12-18T01:05:28;-5.00;99.90
37276;DHT22;23166;51.150;21.620;2022-12-18T01:07:55;-5.00;99.90
37276;DHT22;23166;51.150;21.620;2022-12-18T01:10:22;-5.00;99.90
37276;DHT22;23166;51.150;21.620;2022-12-18T01:12:49;-4.90;99.90
37276;DHT22;23166;51.150;21.620;2022-12-18T01:15:16;-4.90;99.90
37276;DHT22;23166;51.150;21.620;2022-12-18T01:17:43;-4.90;99.90
37276;DHT22;23166;51.150;21.620;2022-12-18T01:20:10;-4.90;99.90
37276;DHT22;23166;51.150;21.620;2022-12-18T01:22:37;-4.80;99.90
37276;DHT22;23166;51.150;21.620;2022-12-18T01:25:04;-4.80;99.90
37276;DHT22;23166;51.150;21.620;2022-12-18T01:27:33;-4.80;99.90
37276;DHT22;23166;51.150;21.620;2022-12-18T01:29:59;-4.80;99.90
37276;DHT22;23166;51.150;21.620;2022-12-18T01:32:26;-4.80;99.90
37276;DHT22;23166;51.150;21.620;2022-12-18T01:34:52;-4.70;99.90
37276;DHT22;23166;51.150;21.620;2022-12-18T01:37:18;-4.70;99.90
37276;DHT22;23166;51.150;21.620;2022-12-18T01:39:45;-4.70;99.90
37276;DHT22;23166;51.150;21.620;2022-12-18T01:42:13;-4.70;99.90
37276;DHT22;23166;51.150;21.620;2022-12-18T01:47:43;-4.70;99.90
37276;DHT22;23166;51.150;21.620;2022-12-18T01:50:12;-4.70;99.90
37276;DHT22;23166;51.150;21.620;2022-12-18T01:52:45;-4.60;99.90
37276;DHT22;23166;51.150;21.620;2022-12-18T01:55:09;-4.60;99.90
37276;DHT22;23166;51.150;21.620;2022-12-18T01:57:37;-4.60;99.90
37276;DHT22;23166;51.150;21.620;2022-12-18T02:00:07;-4.60;99.90
37276;DHT22;23166;51.150;21.620;2022-12-18T02:02:34;-4.60;99.90
37276;DHT22;23166;51.150;21.620;2022-12-18T02:05:02;-4.60;99.90
37276;DHT22;23166;51.150;21.620;2022-12-18T02:07:42;-4.60;99.90
37276;DHT22;23166;51.150;21.620;2022-12-18T02:10:02;-4.50;99.90
37276;DHT22;23166;51.150;21.620;2022-12-18T02:17:43;-4.50;99.90
37276;DHT22;23166;51.150;21.620;2022-12-18T02:20:32;-4.50;99.90
37276;DHT22;23166;51.150;21.620;2022-12-18T02:26:04;-4.50;99.90
37276;DHT22;23166;51.150;21.620;2022-12-18T02:28:36;-4.50;99.90
37276;DHT22;23166;51.150;21.620;2022-12-18T02:31:04;-4.50;99.90
37276;DHT22;23166;51.150;21.620;2022-12-18T02:33:33;-4.40;99.90
37276;DHT22;23166;51.150;21.620;2022-12-18T02:36:01;-4.40;99.90
37276;DHT22;23166;51.150;21.620;2022-12-18T02:38:30;-4.40;99.90
37276;DHT22;23166;51.150;21.620;2022-12-18T02:40:57;-4.40;99.90
37276;DHT22;23166;51.150;21.620;2022-12-18T02:43:24;-4.40;99.90
37276;DHT22;23166;51.150;21.620;2022-12-18T02:45:56;-4.40;99.90
37276;DHT22;23166;51.150;21.620;2022-12-18T02:48:31;-4.40;99.90
37276;DHT22;23166;51.150;21.620;2022-12-18T02:51:24;-4.40;99.90
37276;DHT22;23166;51.150;21.620;2022-12-18T02:53:57;-4.40;99.90
37276;DHT22;23166;51.150;21.620;2022-12-18T02:56:29;-4.40;99.90
37276;DHT22;23166;51.150;21.620;2022-12-18T02:59:05;-4.30;99.90
37276;DHT22;23166;51.150;21.620;2022-12-18T03:01:55;-4.30;99.90
37276;DHT22;23166;51.150;21.620;2022-12-18T03:07:15;-4.30;99.90
37276;DHT22;23166;51.150;21.620;2022-12-18T03:09:42;-4.30;99.90
37276;DHT22;23166;51.150;21.620;2022-12-18T03:12:18;-4.30;99.90
37276;DHT22;23166;51.150;21.620;2022-12-18T03:15:15;-4.30;99.90
37276;DHT22;23166;51.150;21.620;2022-12-18T03:17:47;-4.20;99.90
37276;DHT22;23166;51.150;21.620;2022-12-18T03:20:17;-4.20;99.90
37276;DHT22;23166;51.150;21.620;2022-12-18T03:22:47;-4.20;99.90
37276;DHT22;23166;51.150;21.620;2022-12-18T03:25:16;-4.20;99.90
37276;DHT22;23166;51.150;21.620;2022-12-18T03:27:46;-4.20;99.90
37276;DHT22;23166;51.150;21.620;2022-12-18T03:30:14;-4.20;99.90
37276;DHT22;23166;51.150;21.620;2022-12-18T03:32:53;-4.20;99.90
37276;DHT22;23166;51.150;21.620;2022-12-18T03:35:24;-4.20;99.90
37276;DHT22;23166;51.150;21.620;2022-12-18T03:37:51;-4.20;99.90
37276;DHT22;23166;51.150;21.620;2022-12-18T03:40:19;-4.20;99.90
37276;DHT22;23166;51.150;21.620;2022-12-18T03:42:49;-4.10;99.90
37276;DHT22;23166;51.150;21.620;2022-12-18T03:45:37;-4.10;99.90
37276;DHT22;23166;51.150;21.620;2022-12-18T03:48:07;-4.10;99.90
37276;DHT22;23166;51.150;21.620;2022-12-18T03:50:37;-4.10;99.90
37276;DHT22;23166;51.150;21.620;2022-12-18T03:55:58;-4.10;99.90
37276;DHT22;23166;51.150;21.620;2022-12-18T03:58:25;-4.10;99.90
37276;DHT22;23166;51.150;21.620;2022-12-18T04:00:56;-4.10;99.90
37276;DHT22;23166;51.150;21.620;2022-12-18T04:03:23;-4.00;99.90
37276;DHT22;23166;51.150;21.620;2022-12-18T04:05:51;-4.00;99.90
37276;DHT22;23166;51.150;21.620;2022-12-18T04:08:19;-4.00;99.90
37276;DHT22;23166;51.150;21.620;2022-12-18T04:10:46;-4.00;99.90
37276;DHT22;23166;51.150;21.620;2022-12-18T04:13:12;-4.00;99.90
37276;DHT22;23166;51.150;21.620;2022-12-18T04:15:40;-4.00;99.90
37276;DHT22;23166;51.150;21.620;2022-12-18T04:18:07;-4.00;99.90
37276;DHT22;23166;51.150;21.620;2022-12-18T04:20:34;-4.00;99.90
37276;DHT22;23166;51.150;21.620;2022-12-18T04:23:00;-4.00;99.90
37276;DHT22;23166;51.150;21.620;2022-12-18T04:25:27;-4.00;99.90
37276;DHT22;23166;51.150;21.620;2022-12-18T04:27:53;-4.00;99.90
37276;DHT22;23166;51.150;21.620;2022-12-18T04:30:19;-4.00;99.90
37276;DHT22;23166;51.150;21.620;2022-12-18T04:32:47;-3.90;99.90
37276;DHT22;23166;51.150;21.620;2022-12-18T04:35:13;-3.90;99.90
37276;DHT22;23166;51.150;21.620;2022-12-18T04:37:40;-3.90;99.90
37276;DHT22;23166;51.150;21.620;2022-12-18T04:40:07;-3.90;99.90
37276;DHT22;23166;51.150;21.620;2022-12-18T04:42:33;-3.90;99.90
37276;DHT22;23166;51.150;21.620;2022-12-18T04:44:59;-3.90;99.90
37276;DHT22;23166;51.150;21.620;2022-12-18T04:47:26;-3.90;99.90
37276;DHT22;23166;51.150;21.620;2022-12-18T04:49:52;-3.90;99.90
37276;DHT22;23166;51.150;21.620;2022-12-18T04:52:19;-3.90;99.90
37276;DHT22;23166;51.150;21.620;2022-12-18T04:54:45;-3.90;99.90
37276;DHT22;23166;51.150;21.620;2022-12-18T04:57:11;-3.90;99.90
37276;DHT22;23166;51.150;21.620;2022-12-18T04:59:38;-3.90;99.90
37276;DHT22;23166;51.150;21.620;2022-12-18T05:02:04;-3.90;99.90
37276;DHT22;23166;51.150;21.620;2022-12-18T05:04:31;-3.80;99.90
37276;DHT22;23166;51.150;21.620;2022-12-18T05:06:57;-3.80;99.90
37276;DHT22;23166;51.150;21.620;2022-12-18T05:09:23;-3.80;99.90
37276;DHT22;23166;51.150;21.620;2022-12-18T05:11:50;-3.90;99.90
37276;DHT22;23166;51.150;21.620;2022-12-18T05:14:16;-3.80;99.90
37276;DHT22;23166;51.150;21.620;2022-12-18T05:16:42;-3.80;99.90
37276;DHT22;23166;51.150;21.620;2022-12-18T05:19:09;-3.90;99.90
37276;DHT22;23166;51.150;21.620;2022-12-18T05:21:35;-3.90;99.90
37276;DHT22;23166;51.150;21.620;2022-12-18T05:24:02;-3.90;99.90
37276;DHT22;23166;51.150;21.620;2022-12-18T05:26:28;-3.90;99.90
37276;DHT22;23166;51.150;21.620;2022-12-18T05:28:55;-3.90;99.90
37276;DHT22;23166;51.150;21.620;2022-12-18T05:31:21;-4.00;99.90
37276;DHT22;23166;51.150;21.620;2022-12-18T05:33:47;-3.90;99.90
37276;DHT22;23166;51.150;21.620;2022-12-18T05:36:14;-4.00;99.90
37276;DHT22;23166;51.150;21.620;2022-12-18T05:38:41;-4.00;99.90
37276;DHT22;23166;51.150;21.620;2022-12-18T05:41:07;-4.00;99.90
37276;DHT22;23166;51.150;21.620;2022-12-18T05:43:35;-4.00;99.90
37276;DHT22;23166;51.150;21.620;2022-12-18T05:46:04;-4.10;99.90
37276;DHT22;23166;51.150;21.620;2022-12-18T05:48:31;-4.00;99.90
37276;DHT22;23166;51.150;21.620;2022-12-18T05:51:07;-4.00;99.90
37276;DHT22;23166;51.150;21.620;2022-12-18T05:53:30;-4.10;99.90
37276;DHT22;23166;51.150;21.620;2022-12-18T05:56:05;-4.10;99.90
37276;DHT22;23166;51.150;21.620;2022-12-18T05:58:32;-4.10;99.90
37276;DHT22;23166;51.150;21.620;2022-12-18T06:01:05;-4.10;99.90
37276;DHT22;23166;51.150;21.620;2022-12-18T06:03:27;-4.10;99.90
37276;DHT22;23166;51.150;21.620;2022-12-18T06:05:53;-4.10;99.90
37276;DHT22;23166;51.150;21.620;2022-12-18T06:08:19;-4.20;99.90
37276;DHT22;23166;51.150;21.620;2022-12-18T06:10:53;-4.20;99.90
37276;DHT22;23166;51.150;21.620;2022-12-18T06:13:17;-4.20;99.90
37276;DHT22;23166;51.150;21.620;2022-12-18T06:15:43;-4.20;99.90
37276;DHT22;23166;51.150;21.620;2022-12-18T06:18:09;-4.20;99.90
37276;DHT22;23166;51.150;21.620;2022-12-18T06:20:36;-4.20;99.90
37276;DHT22;23166;51.150;21.620;2022-12-18T06:23:04;-4.20;99.90
37276;DHT22;23166;51.150;21.620;2022-12-18T06:25:31;-4.30;99.90
37276;DHT22;23166;51.150;21.620;2022-12-18T06:27:57;-4.30;99.90
37276;DHT22;23166;51.150;21.620;2022-12-18T06:30:23;-4.20;99.90
37276;DHT22;23166;51.150;21.620;2022-12-18T06:32:50;-4.20;99.90
37276;DHT22;23166;51.150;21.620;2022-12-18T06:35:16;-4.30;99.90
37276;DHT22;23166;51.150;21.620;2022-12-18T06:37:43;-4.20;99.90
37276;DHT22;23166;51.150;21.620;2022-12-18T06:40:09;-4.20;99.90
37276;DHT22;23166;51.150;21.620;2022-12-18T06:42:36;-4.30;99.90
37276;DHT22;23166;51.150;21.620;2022-12-18T06:45:02;-4.30;99.90
37276;DHT22;23166;51.150;21.620;2022-12-18T06:47:29;-4.20;99.90
37276;DHT22;23166;51.150;21.620;2022-12-18T06:49:55;-4.20;99.90
37276;DHT22;23166;51.150;21.620;2022-12-18T06:52:21;-4.20;99.90
37276;DHT22;23166;51.150;21.620;2022-12-18T06:54:48;-4.20;99.90
37276;DHT22;23166;51.150;21.620;2022-12-18T06:57:14;-4.20;99.90
37276;DHT22;23166;51.150;21.620;2022-12-18T06:59:40;-4.20;99.90
37276;DHT22;23166;51.150;21.620;2022-12-18T07:02:10;-4.20;99.90
37276;DHT22;23166;51.150;21.620;2022-12-18T07:04:37;-4.20;99.90
37276;DHT22;23166;51.150;21.620;2022-12-18T07:07:03;-4.10;99.90
37276;DHT22;23166;51.150;21.620;2022-12-18T07:09:30;-4.10;99.90
37276;DHT22;23166;51.150;21.620;2022-12-18T07:11:56;-4.10;99.90
37276;DHT22;23166;51.150;21.620;2022-12-18T07:14:22;-4.10;99.90
37276;DHT22;23166;51.150;21.620;2022-12-18T07:16:49;-4.10;99.90
37276;DHT22;23166;51.150;21.620;2022-12-18T07:19:15;-4.10;99.90
37276;DHT22;23166;51.150;21.620;2022-12-18T07:21:41;-4.10;99.90
37276;DHT22;23166;51.150;21.620;2022-12-18T07:24:08;-4.10;99.90
37276;DHT22;23166;51.150;21.620;2022-12-18T07:26:34;-4.10;99.90
37276;DHT22;23166;51.150;21.620;2022-12-18T07:29:01;-4.00;99.90
37276;DHT22;23166;51.150;21.620;2022-12-18T07:31:27;-4.00;99.90
37276;DHT22;23166;51.150;21.620;2022-12-18T07:33:53;-4.00;99.90
37276;DHT22;23166;51.150;21.620;2022-12-18T07:36:23;-4.00;99.90
37276;DHT22;23166;51.150;21.620;2022-12-18T07:38:50;-4.00;99.90
37276;DHT22;23166;51.150;21.620;2022-12-18T07:41:18;-4.00;99.90
37276;DHT22;23166;51.150;21.620;2022-12-18T07:43:44;-3.90;99.90
37276;DHT22;23166;51.150;21.620;2022-12-18T07:46:11;-3.90;99.90
37276;DHT22;23166;51.150;21.620;2022-12-18T07:48:43;-3.90;99.90
37276;DHT22;23166;51.150;21.620;2022-12-18T07:51:11;-3.90;99.90
37276;DHT22;23166;51.150;21.620;2022-12-18T07:53:39;-3.90;99.90
37276;DHT22;23166;51.150;21.620;2022-12-18T07:56:09;-3.80;99.90
37276;DHT22;23166;51.150;21.620;2022-12-18T07:58:36;-3.80;99.90
37276;DHT22;23166;51.150;21.620;2022-12-18T08:01:04;-3.70;99.90
37276;DHT22;23166;51.150;21.620;2022-12-18T08:03:31;-3.80;99.90
37276;DHT22;23166;51.150;21.620;2022-12-18T08:06:02;-3.70;99.90
37276;DHT22;23166;51.150;21.620;2022-12-18T08:08:30;-3.60;99.90
37276;DHT22;23166;51.150;21.620;2022-12-18T08:10:57;-3.60;99.90
37276;DHT22;23166;51.150;21.620;2022-12-18T08:13:23;-3.60;99.90
37276;DHT22;23166;51.150;21.620;2022-12-18T08:16:05;-3.60;99.90
37276;DHT22;23166;51.150;21.620;2022-12-18T08:18:33;-3.60;99.90
37276;DHT22;23166;51.150;21.620;2022-12-18T08:23:42;-3.50;99.90
37276;DHT22;23166;51.150;21.620;2022-12-18T08:26:09;-3.50;99.90
37276;DHT22;23166;51.150;21.620;2022-12-18T08:28:36;-3.50;99.90
37276;DHT22;23166;51.150;21.620;2022-12-18T08:31:03;-3.50;99.90
37276;DHT22;23166;51.150;21.620;2022-12-18T08:33:29;-3.50;99.90
37276;DHT22;23166;51.150;21.620;2022-12-18T08:35:55;-3.50;99.90
37276;DHT22;23166;51.150;21.620;2022-12-18T08:38:22;-3.50;99.90
37276;DHT22;23166;51.150;21.620;2022-12-18T08:40:48;-3.50;99.90
37276;DHT22;23166;51.150;21.620;2022-12-18T08:43:15;-3.50;99.90
37276;DHT22;23166;51.150;21.620;2022-12-18T08:46:00;-3.50;99.90
37276;DHT22;23166;51.150;21.620;2022-12-18T08:48:26;-3.50;99.90
37276;DHT22;23166;51.150;21.620;2022-12-18T08:50:56;-3.40;99.90
37276;DHT22;23166;51.150;21.620;2022-12-18T08:53:23;-3.40;99.90
37276;DHT22;23166;51.150;21.620;2022-12-18T08:55:50;-3.40;99.90
37276;DHT22;23166;51.150;21.620;2022-12-18T08:58:16;-3.30;99.90
37276;DHT22;23166;51.150;21.620;2022-12-18T09:00:43;-3.20;99.90
37276;DHT22;23166;51.150;21.620;2022-12-18T09:03:15;-3.20;99.90
37276;DHT22;23166;51.150;21.620;2022-12-18T09:05:43;-3.20;99.90
37276;DHT22;23166;51.150;21.620;2022-12-18T09:08:09;-3.10;99.90
37276;DHT22;23166;51.150;21.620;2022-12-18T09:10:44;-3.10;99.90
37276;DHT22;23166;51.150;21.620;2022-12-18T09:13:12;-3.00;99.90
37276;DHT22;23166;51.150;21.620;2022-12-18T09:15:49;-3.00;99.90
37276;DHT22;23166;51.150;21.620;2022-12-18T09:18:12;-3.00;99.90
37276;DHT22;23166;51.150;21.620;2022-12-18T09:20:39;-2.90;99.90
37276;DHT22;23166;51.150;21.620;2022-12-18T09:23:06;-2.90;99.90
37276;DHT22;23166;51.150;21.620;2022-12-18T09:25:33;-2.80;99.90
37276;DHT22;23166;51.150;21.620;2022-12-18T09:28:04;-2.80;99.90
37276;DHT22;23166;51.150;21.620;2022-12-18T09:30:31;-2.70;99.90
37276;DHT22;23166;51.150;21.620;2022-12-18T09:32:59;-2.60;99.90
37276;DHT22;23166;51.150;21.620;2022-12-18T09:35:25;-2.60;99.90
37276;DHT22;23166;51.150;21.620;2022-12-18T09:37:53;-2.60;99.90
37276;DHT22;23166;51.150;21.620;2022-12-18T09:40:23;-2.60;99.90
37276;DHT22;23166;51.150;21.620;2022-12-18T09:42:59;-2.60;99.90
37276;DHT22;23166;51.150;21.620;2022-12-18T09:45:27;-2.60;99.90
37276;DHT22;23166;51.150;21.620;2022-12-18T09:47:54;-2.60;99.90
37276;DHT22;23166;51.150;21.620;2022-12-18T09:50:37;-2.50;99.90
37276;DHT22;23166;51.150;21.620;2022-12-18T09:53:03;-2.50;99.90
37276;DHT22;23166;51.150;21.620;2022-12-18T09:55:48;-2.50;99.90
37276;DHT22;23166;51.150;21.620;2022-12-18T10:00:47;-2.40;99.90
37276;DHT22;23166;51.150;21.620;2022-12-18T10:03:14;-2.30;99.90
37276;DHT22;23166;51.150;21.620;2022-12-18T10:05:58;-2.20;99.90
37276;DHT22;23166;51.150;21.620;2022-12-18T10:11:49;-2.10;99.90
37276;DHT22;23166;51.150;21.620;2022-12-18T10:19:58;-1.90;99.90
37276;DHT22;23166;51.150;21.620;2022-12-18T10:26:08;-1.90;99.90
37276;DHT22;23166;51.150;21.620;2022-12-18T10:27:57;-1.80;99.90
37276;DHT22;23166;51.150;21.620;2022-12-18T10:30:25;-1.80;99.90
37276;DHT22;23166;51.150;21.620;2022-12-18T10:32:51;-1.70;99.90
37276;DHT22;23166;51.150;21.620;2022-12-18T10:35:27;-1.70;99.90
37276;DHT22;23166;51.150;21.620;2022-12-18T10:38:19;-1.70;99.90
37276;DHT22;23166;51.150;21.620;2022-12-18T10:40:50;-1.80;99.90
37276;DHT22;23166;51.150;21.620;2022-12-18T10:46:24;-1.80;99.90
37276;DHT22;23166;51.150;21.620;2022-12-18T10:48:26;-1.80;97.20
37276;DHT22;23166;51.150;21.620;2022-12-18T10:50:53;-1.90;94.40
37276;DHT22;23166;51.150;21.620;2022-12-18T10:53:26;-1.90;97.20
37276;DHT22;23166;51.150;21.620;2022-12-18T10:55:55;-2.00;97.00
37276;DHT22;23166;51.150;21.620;2022-12-18T10:58:30;-2.00;99.90
37276;DHT22;23166;51.150;21.620;2022-12-18T11:01:09;-2.00;99.20
37276;DHT22;23166;51.150;21.620;2022-12-18T11:03:45;-2.00;99.90
37276;DHT22;23166;51.150;21.620;2022-12-18T11:06:14;-2.00;99.90
37276;DHT22;23166;51.150;21.620;2022-12-18T11:08:43;-2.00;99.90
37276;DHT22;23166;51.150;21.620;2022-12-18T11:11:21;-1.90;99.90
37276;DHT22;23166;51.150;21.620;2022-12-18T11:13:57;-2.00;96.90
37276;DHT22;23166;51.150;21.620;2022-12-18T11:16:21;-2.00;98.40
37276;DHT22;23166;51.150;21.620;2022-12-18T11:18:48;-1.90;99.90
37276;DHT22;23166;51.150;21.620;2022-12-18T11:21:14;-1.90;99.90
37276;DHT22;23166;51.150;21.620;2022-12-18T11:23:54;-1.90;99.90
37276;DHT22;23166;51.150;21.620;2022-12-18T11:26:20;-1.80;99.90
37276;DHT22;23166;51.150;21.620;2022-12-18T11:29:08;-1.80;99.90
37276;DHT22;23166;51.150;21.620;2022-12-18T11:31:35;-1.80;99.90
37276;DHT22;23166;51.150;21.620;2022-12-18T11:34:11;-1.80;98.70
37276;DHT22;23166;51.150;21.620;2022-12-18T11:36:41;-1.80;99.90
37276;DHT22;23166;51.150;21.620;2022-12-18T11:39:40;-1.80;99.90
37276;DHT22;23166;51.150;21.620;2022-12-18T11:42:32;-1.80;99.90
37276;DHT22;23166;51.150;21.620;2022-12-18T11:45:20;-1.80;99.60
37276;DHT22;23166;51.150;21.620;2022-12-18T11:52:43;-1.90;99.40
37276;DHT22;23166;51.150;21.620;2022-12-18T11:55:15;-2.00;98.40
37276;DHT22;23166;51.150;21.620;2022-12-18T11:57:55;-2.00;95.40
37276;DHT22;23166;51.150;21.620;2022-12-18T12:00:22;-2.10;94.10
37276;DHT22;23166;51.150;21.620;2022-12-18T12:08:45;-2.20;99.90
37276;DHT22;23166;51.150;21.620;2022-12-18T12:11:36;-2.20;99.90
37276;DHT22;23166;51.150;21.620;2022-12-18T12:14:25;-2.20;99.90
37276;DHT22;23166;51.150;21.620;2022-12-18T12:17:05;-2.10;99.90
37276;DHT22;23166;51.150;21.620;2022-12-18T12:19:43;-2.10;99.90
37276;DHT22;23166;51.150;21.620;2022-12-18T12:25:02;-2.10;99.90
37276;DHT22;23166;51.150;21.620;2022-12-18T12:27:44;-2.10;99.90
37276;DHT22;23166;51.150;21.620;2022-12-18T12:30:05;-2.00;99.90
37276;DHT22;23166;51.150;21.620;2022-12-18T12:35:25;-2.00;99.90
37276;DHT22;23166;51.150;21.620;2022-12-18T12:40:52;-2.00;99.90
37276;DHT22;23166;51.150;21.620;2022-12-18T12:43:28;-2.00;99.90
37276;DHT22;23166;51.150;21.620;2022-12-18T12:53:51;-2.10;99.90
37276;DHT22;23166;51.150;21.620;2022-12-18T12:56:19;-2.10;99.90
37276;DHT22;23166;51.150;21.620;2022-12-18T13:09:34;-2.30;99.90
37276;DHT22;23166;51.150;21.620;2022-12-18T13:12:03;-2.30;99.90
37276;DHT22;23166;51.150;21.620;2022-12-18T13:14:48;-2.40;99.90
37276;DHT22;23166;51.150;21.620;2022-12-18T13:17:37;-2.50;98.40
37276;DHT22;23166;51.150;21.620;2022-12-18T13:20:19;-2.60;99.90
37276;DHT22;23166;51.150;21.620;2022-12-18T13:22:22;-2.70;99.90
37276;DHT22;23166;51.150;21.620;2022-12-18T13:24:50;-2.70;99.90
37276;DHT22;23166;51.150;21.620;2022-12-18T13:35:53;-2.90;99.90
37276;DHT22;23166;51.150;21.620;2022-12-18T13:41:00;-2.90;99.90
37276;DHT22;23166;51.150;21.620;2022-12-18T13:43:30;-3.00;99.90
37276;DHT22;23166;51.150;21.620;2022-12-18T13:48:52;-3.10;99.90
37276;DHT22;23166;51.150;21.620;2022-12-18T13:51:21;-3.20;99.90
37276;DHT22;23166;51.150;21.620;2022-12-18T13:53:51;-3.20;99.90
37276;DHT22;23166;51.150;21.620;2022-12-18T13:56:24;-3.20;99.90
37276;DHT22;23166;51.150;21.620;2022-12-18T14:01:31;-3.40;99.90
37276;DHT22;23166;51.150;21.620;2022-12-18T14:04:21;-3.40;99.90
37276;DHT22;23166;51.150;21.620;2022-12-18T14:06:51;-3.40;99.90
37276;DHT22;23166;51.150;21.620;2022-12-18T14:09:28;-3.50;99.90
37276;DHT22;23166;51.150;21.620;2022-12-18T14:11:55;-3.50;99.90
37276;DHT22;23166;51.150;21.620;2022-12-18T14:14:24;-3.50;99.90
37276;DHT22;23166;51.150;21.620;2022-12-18T14:16:52;-3.60;99.90
37276;DHT22;23166;51.150;21.620;2022-12-18T14:19:18;-3.60;99.90
37276;DHT22;23166;51.150;21.620;2022-12-18T14:21:46;-3.60;99.90
37276;DHT22;23166;51.150;21.620;2022-12-18T14:24:19;-3.60;99.90
37276;DHT22;23166;51.150;21.620;2022-12-18T14:26:48;-3.60;99.90
37276;DHT22;23166;51.150;21.620;2022-12-18T14:34:42;-3.70;99.90
37276;DHT22;23166;51.150;21.620;2022-12-18T14:37:13;-3.80;99.90
37276;DHT22;23166;51.150;21.620;2022-12-18T14:40:01;-3.80;99.90
37276;DHT22;23166;51.150;21.620;2022-12-18T14:42:29;-3.80;99.90
37276;DHT22;23166;51.150;21.620;2022-12-18T14:47:59;-3.90;99.90
37276;DHT22;23166;51.150;21.620;2022-12-18T14:50:26;-3.90;99.90
37276;DHT22;23166;51.150;21.620;2022-12-18T14:52:52;-3.90;99.90
37276;DHT22;23166;51.150;21.620;2022-12-18T14:55:20;-3.90;99.90
37276;DHT22;23166;51.150;21.620;2022-12-18T14:57:50;-3.90;99.90
37276;DHT22;23166;51.150;21.620;2022-12-18T15:00:22;-3.90;99.90
37276;DHT22;23166;51.150;21.620;2022-12-18T15:02:56;-4.00;99.90
37276;DHT22;23166;51.150;21.620;2022-12-18T15:05:29;-4.00;99.90
37276;DHT22;23166;51.150;21.620;2022-12-18T15:07:58;-4.00;99.90
37276;DHT22;23166;51.150;21.620;2022-12-18T15:10:27;-4.00;99.90
37276;DHT22;23166;51.150;21.620;2022-12-18T15:18:16;-4.00;99.90
37276;DHT22;23166;51.150;21.620;2022-12-18T15:20:46;-4.10;99.90
37276;DHT22;23166;51.150;21.620;2022-12-18T15:26:08;-4.10;99.90
37276;DHT22;23166;51.150;21.620;2022-12-18T15:33:45;-4.10;99.90
37276;DHT22;23166;51.150;21.620;2022-12-18T15:36:14;-4.10;99.90
37276;DHT22;23166;51.150;21.620;2022-12-18T15:38:45;-4.10;99.90
37276;DHT22;23166;51.150;21.620;2022-12-18T15:41:18;-4.10;99.90
37276;DHT22;23166;51.150;21.620;2022-12-18T15:43:46;-4.10;99.90
37276;DHT22;23166;51.150;21.620;2022-12-18T15:46:18;-4.10;99.90
37276;DHT22;23166;51.150;21.620;2022-12-18T15:48:47;-4.10;99.90
37276;DHT22;23166;51.150;21.620;2022-12-18T15:53:44;-4.10;99.90
37276;DHT22;23166;51.150;21.620;2022-12-18T15:56:13;-4.10;99.90
37276;DHT22;23166;51.150;21.620;2022-12-18T15:58:58;-4.10;99.90
37276;DHT22;23166;51.150;21.620;2022-12-18T16:01:29;-4.10;99.90
37276;DHT22;23166;51.150;21.620;2022-12-18T16:03:56;-4.10;99.90
37276;DHT22;23166;51.150;21.620;2022-12-18T16:06:22;-4.20;99.90
37276;DHT22;23166;51.150;21.620;2022-12-18T16:08:49;-4.20;99.90
37276;DHT22;23166;51.150;21.620;2022-12-18T16:16:41;-4.10;99.90
37276;DHT22;23166;51.150;21.620;2022-12-18T16:19:07;-4.20;99.90
37276;DHT22;23166;51.150;21.620;2022-12-18T16:21:33;-4.20;99.90
37276;DHT22;23166;51.150;21.620;2022-12-18T16:24:00;-4.20;99.90
37276;DHT22;23166;51.150;21.620;2022-12-18T16:26:26;-4.20;99.90
37276;DHT22;23166;51.150;21.620;2022-12-18T16:28:53;-4.10;99.90
37276;DHT22;23166;51.150;21.620;2022-12-18T16:31:19;-4.10;99.90
37276;DHT22;23166;51.150;21.620;2022-12-18T16:33:46;-4.20;99.90
37276;DHT22;23166;51.150;21.620;2022-12-18T16:36:13;-4.20;99.90
37276;DHT22;23166;51.150;21.620;2022-12-18T16:38:39;-4.20;99.90
37276;DHT22;23166;51.150;21.620;2022-12-18T16:41:21;-4.20;99.90
37276;DHT22;23166;51.150;21.620;2022-12-18T16:43:57;-4.20;99.90
37276;DHT22;23166;51.150;21.620;2022-12-18T16:46:24;-4.30;99.90
37276;DHT22;23166;51.150;21.620;2022-12-18T16:48:50;-4.30;99.90
37276;DHT22;23166;51.150;21.620;2022-12-18T16:51:17;-4.30;99.90
37276;DHT22;23166;51.150;21.620;2022-12-18T16:53:43;-4.30;99.90
37276;DHT22;23166;51.150;21.620;2022-12-18T16:56:10;-4.30;99.90
37276;DHT22;23166;51.150;21.620;2022-12-18T16:58:36;-4.30;99.90
37276;DHT22;23166;51.150;21.620;2022-12-18T17:01:06;-4.30;99.90
37276;DHT22;23166;51.150;21.620;2022-12-18T17:03:31;-4.30;99.90
37276;DHT22;23166;51.150;21.620;2022-12-18T17:06:03;-4.30;99.90
37276;DHT22;23166;51.150;21.620;2022-12-18T17:08:30;-4.30;99.90
37276;DHT22;23166;51.150;21.620;2022-12-18T17:11:09;-4.30;99.90
37276;DHT22;23166;51.150;21.620;2022-12-18T17:13:33;-4.30;99.90
37276;DHT22;23166;51.150;21.620;2022-12-18T17:16:04;-4.30;99.90
37276;DHT22;23166;51.150;21.620;2022-12-18T17:18:32;-4.30;99.90
37276;DHT22;23166;51.150;21.620;2022-12-18T17:21:00;-4.30;99.90
37276;DHT22;23166;51.150;21.620;2022-12-18T17:23:27;-4.20;99.90
37276;DHT22;23166;51.150;21.620;2022-12-18T17:25:55;-4.30;99.90
37276;DHT22;23166;51.150;21.620;2022-12-18T17:28:24;-4.30;99.90
37276;DHT22;23166;51.150;21.620;2022-12-18T17:30:52;-4.30;99.90
37276;DHT22;23166;51.150;21.620;2022-12-18T17:33:19;-4.30;99.90